sensor_id;sensor_type;location;lat;lon;timestamp;P1;durP1;ratioP1;P2;durP2;ratioP2
57339;SDS011;43174;50.930;18.170;2022-11-13T00:09:32;48.10;;;36.40;;
57339;SDS011;43174;50.930;18.170;2022-11-13T00:19:14;58.80;;;36.40;;
57339;SDS011;43174;50.930;18.170;2022-11-13T00:36:16;42.30;;;31.70;;
57339;SDS011;43174;50.930;18.170;2022-11-13T00:53:14;35.30;;;31.60;;
57339;SDS011;43174;50.930;18.170;2022-11-13T01:02:59;46.30;;;30.90;;
57339;SDS011;43174;50.930;18.170;2022-11-13T01:12:40;46.30;;;27.10;;
57339;SDS011;43174;50.930;18.170;2022-11-13T01:36:56;19.50;;;18.20;;
57339;SDS011;43174;50.930;18.170;2022-11-13T01:46:38;20.30;;;18.40;;
57339;SDS011;43174;50.930;18.170;2022-11-13T01:56:21;32.20;;;28.20;;
57339;SDS011;43174;50.930;18.170;2022-11-13T02:06:02;58.90;;;38.50;;
57339;SDS011;43174;50.930;18.170;2022-11-13T02:15:44;51.00;;;40.40;;
57339;SDS011;43174;50.930;18.170;2022-11-13T02:25:26;60.30;;;39.60;;
57339;SDS011;43174;50.930;18.170;2022-11-13T02:35:08;61.70;;;34.50;;
57339;SDS011;43174;50.930;18.170;2022-11-13T02:44:49;69.00;;;41.50;;
57339;SDS011;43174;50.930;18.170;2022-11-13T02:54:31;49.30;;;40.50;;
57339;SDS011;43174;50.930;18.170;2022-11-13T03:04:12;45.00;;;26.90;;
57339;SDS011;43174;50.930;18.170;2022-11-13T03:13:54;351.30;;;244.30;;
57339;SDS011;43174;50.930;18.170;2022-11-13T03:23:35;56.30;;;46.80;;
57339;SDS011;43174;50.930;18.170;2022-11-13T03:33:17;57.70;;;40.90;;
57339;SDS011;43174;50.930;18.170;2022-11-13T03:42:59;65.10;;;44.50;;
57339;SDS011;43174;50.930;18.170;2022-11-13T03:52:41;39.50;;;30.50;;
57339;SDS011;43174;50.930;18.170;2022-11-13T04:02:22;60.90;;;31.70;;
57339;SDS011;43174;50.930;18.170;2022-11-13T04:12:04;70.70;;;32.90;;
57339;SDS011;43174;50.930;18.170;2022-11-13T04:21:46;67.90;;;42.30;;
57339;SDS011;43174;50.930;18.170;2022-11-13T04:31:27;42.90;;;33.10;;
57339;SDS011;43174;50.930;18.170;2022-11-13T04:41:10;69.40;;;40.40;;
57339;SDS011;43174;50.930;18.170;2022-11-13T04:51:11;64.60;;;50.60;;
57339;SDS011;43174;50.930;18.170;2022-11-13T05:00:53;66.40;;;38.30;;
57339;SDS011;43174;50.930;18.170;2022-11-13T05:10:35;54.60;;;30.60;;
57339;SDS011;43174;50.930;18.170;2022-11-13T05:20:18;45.80;;;40.90;;
57339;SDS011;43174;50.930;18.170;2022-11-13T05:30:01;67.10;;;41.80;;
57339;SDS011;43174;50.930;18.170;2022-11-13T05:39:42;63.40;;;47.50;;
57339;SDS011;43174;50.930;18.170;2022-11-13T05:49:25;66.80;;;36.30;;
57339;SDS011;43174;50.930;18.170;2022-11-13T05:59:07;28.00;;;25.10;;
57339;SDS011;43174;50.930;18.170;2022-11-13T06:08:49;56.50;;;40.20;;
57339;SDS011;43174;50.930;18.170;2022-11-13T06:25:47;52.90;;;36.60;;
57339;SDS011;43174;50.930;18.170;2022-11-13T06:35:29;80.80;;;44.30;;
57339;SDS011;43174;50.930;18.170;2022-11-13T06:45:10;64.50;;;47.20;;
57339;SDS011;43174;50.930;18.170;2022-11-13T06:54:52;63.70;;;44.40;;
57339;SDS011;43174;50.930;18.170;2022-11-13T07:04:33;65.50;;;34.20;;
57339;SDS011;43174;50.930;18.170;2022-11-13T07:14:15;49.80;;;37.30;;
57339;SDS011;43174;50.930;18.170;2022-11-13T07:23:57;44.80;;;31.30;;
57339;SDS011;43174;50.930;18.170;2022-11-13T07:33:40;60.90;;;40.60;;
57339;SDS011;43174;50.930;18.170;2022-11-13T07:43:21;38.70;;;32.50;;
57339;SDS011;43174;50.930;18.170;2022-11-13T07:53:10;51.80;;;44.20;;
57339;SDS011;43174;50.930;18.170;2022-11-13T08:02:52;43.20;;;38.50;;
57339;SDS011;43174;50.930;18.170;2022-11-13T08:19:52;89.90;;;39.30;;
57339;SDS011;43174;50.930;18.170;2022-11-13T08:29:33;40.30;;;29.50;;
57339;SDS011;43174;50.930;18.170;2022-11-13T08:39:17;35.80;;;29.10;;
57339;SDS011;43174;50.930;18.170;2022-11-13T08:49:02;57.40;;;40.20;;
57339;SDS011;43174;50.930;18.170;2022-11-13T08:58:44;58.10;;;42.50;;
57339;SDS011;43174;50.930;18.170;2022-11-13T09:08:28;59.00;;;31.20;;
57339;SDS011;43174;50.930;18.170;2022-11-13T09:18:10;57.40;;;43.50;;
57339;SDS011;43174;50.930;18.170;2022-11-13T09:27:55;23.80;;;21.40;;
57339;SDS011;43174;50.930;18.170;2022-11-13T09:37:37;66.50;;;42.30;;
57339;SDS011;43174;50.930;18.170;2022-11-13T09:47:19;78.60;;;47.00;;
57339;SDS011;43174;50.930;18.170;2022-11-13T10:24:13;81.70;;;54.00;;
57339;SDS011;43174;50.930;18.170;2022-11-13T10:33:56;83.40;;;50.80;;
57339;SDS011;43174;50.930;18.170;2022-11-13T10:44:01;72.60;;;50.40;;
57339;SDS011;43174;50.930;18.170;2022-11-13T11:01:00;68.40;;;42.20;;
57339;SDS011;43174;50.930;18.170;2022-11-13T11:10:52;67.90;;;45.20;;
57339;SDS011;43174;50.930;18.170;2022-11-13T11:20:54;67.10;;;45.90;;
57339;SDS011;43174;50.930;18.170;2022-11-13T11:30:58;88.80;;;43.40;;
57339;SDS011;43174;50.930;18.170;2022-11-13T11:40:44;65.40;;;32.80;;
57339;SDS011;43174;50.930;18.170;2022-11-13T11:50:37;67.40;;;45.20;;
57339;SDS011;43174;50.930;18.170;2022-11-13T12:00:41;64.90;;;44.70;;
57339;SDS011;43174;50.930;18.170;2022-11-13T12:30:19;103.40;;;65.70;;
57339;SDS011;43174;50.930;18.170;2022-11-13T12:40:06;69.30;;;42.50;;
57339;SDS011;43174;50.930;18.170;2022-11-13T12:49:59;72.40;;;38.20;;
57339;SDS011;43174;50.930;18.170;2022-11-13T12:59:54;74.80;;;49.20;;
57339;SDS011;43174;50.930;18.170;2022-11-13T13:19:37;128.50;;;81.90;;
57339;SDS011;43174;50.930;18.170;2022-11-13T13:29:20;133.60;;;75.10;;
57339;SDS011;43174;50.930;18.170;2022-11-13T13:39:13;101.90;;;60.20;;
57339;SDS011;43174;50.930;18.170;2022-11-13T13:49:00;148.50;;;84.00;;
57339;SDS011;43174;50.930;18.170;2022-11-13T13:58:43;66.60;;;47.20;;
57339;SDS011;43174;50.930;18.170;2022-11-13T14:08:25;39.90;;;30.80;;
57339;SDS011;43174;50.930;18.170;2022-11-13T14:18:11;56.00;;;42.20;;
57339;SDS011;43174;50.930;18.170;2022-11-13T14:27:53;66.90;;;45.10;;
57339;SDS011;43174;50.930;18.170;2022-11-13T14:37:36;74.00;;;45.30;;
57339;SDS011;43174;50.930;18.170;2022-11-13T14:47:22;60.30;;;39.20;;
57339;SDS011;43174;50.930;18.170;2022-11-13T14:57:07;61.90;;;45.50;;
57339;SDS011;43174;50.930;18.170;2022-11-13T15:06:50;108.90;;;54.20;;
57339;SDS011;43174;50.930;18.170;2022-11-13T15:16:36;83.60;;;58.70;;
57339;SDS011;43174;50.930;18.170;2022-11-13T15:26:18;291.70;;;143.70;;
57339;SDS011;43174;50.930;18.170;2022-11-13T15:35:59;74.40;;;33.60;;
57339;SDS011;43174;50.930;18.170;2022-11-13T15:45:43;158.50;;;85.80;;
57339;SDS011;43174;50.930;18.170;2022-11-13T15:55:28;260.20;;;139.30;;
57339;SDS011;43174;50.930;18.170;2022-11-13T16:05:16;301.50;;;147.30;;
57339;SDS011;43174;50.930;18.170;2022-11-13T16:14:58;303.60;;;162.30;;
57339;SDS011;43174;50.930;18.170;2022-11-13T16:24:41;283.10;;;173.90;;
57339;SDS011;43174;50.930;18.170;2022-11-13T16:34:25;145.50;;;64.00;;
57339;SDS011;43174;50.930;18.170;2022-11-13T16:44:07;76.30;;;52.10;;
57339;SDS011;43174;50.930;18.170;2022-11-13T16:53:50;185.80;;;98.20;;
57339;SDS011;43174;50.930;18.170;2022-11-13T17:03:33;363.40;;;97.90;;
57339;SDS011;43174;50.930;18.170;2022-11-13T17:13:15;461.50;;;157.20;;
57339;SDS011;43174;50.930;18.170;2022-11-13T17:23:00;567.30;;;242.80;;
57339;SDS011;43174;50.930;18.170;2022-11-13T17:32:43;515.10;;;143.90;;
57339;SDS011;43174;50.930;18.170;2022-11-13T17:42:25;114.20;;;50.30;;
57339;SDS011;43174;50.930;18.170;2022-11-13T17:52:08;99.40;;;46.20;;
57339;SDS011;43174;50.930;18.170;2022-11-13T18:01:51;139.90;;;67.70;;
57339;SDS011;43174;50.930;18.170;2022-11-13T18:11:33;94.10;;;46.60;;
57339;SDS011;43174;50.930;18.170;2022-11-13T18:21:18;128.10;;;60.50;;
57339;SDS011;43174;50.930;18.170;2022-11-13T18:31:04;126.00;;;58.30;;
57339;SDS011;43174;50.930;18.170;2022-11-13T18:40:46;139.00;;;59.10;;
57339;SDS011;43174;50.930;18.170;2022-11-13T18:50:28;110.30;;;64.00;;
57339;SDS011;43174;50.930;18.170;2022-11-13T19:07:26;100.60;;;49.00;;
57339;SDS011;43174;50.930;18.170;2022-11-13T19:17:13;90.30;;;49.10;;
57339;SDS011;43174;50.930;18.170;2022-11-13T19:26:57;99.90;;;51.50;;
57339;SDS011;43174;50.930;18.170;2022-11-13T19:29:23;159.00;;;67.10;;
57339;SDS011;43174;50.930;18.170;2022-11-13T19:39:05;143.70;;;80.80;;
57339;SDS011;43174;50.930;18.170;2022-11-13T19:48:47;99.00;;;56.90;;
57339;SDS011;43174;50.930;18.170;2022-11-13T19:58:35;143.60;;;57.40;;
57339;SDS011;43174;50.930;18.170;2022-11-13T20:08:18;122.70;;;54.10;;
57339;SDS011;43174;50.930;18.170;2022-11-13T20:17:59;107.40;;;40.40;;
57339;SDS011;43174;50.930;18.170;2022-11-13T20:27:42;92.70;;;44.70;;
57339;SDS011;43174;50.930;18.170;2022-11-13T20:37:23;105.40;;;35.00;;
57339;SDS011;43174;50.930;18.170;2022-11-13T20:47:06;69.60;;;40.00;;
57339;SDS011;43174;50.930;18.170;2022-11-13T20:56:47;77.00;;;42.30;;
57339;SDS011;43174;50.930;18.170;2022-11-13T21:06:29;83.90;;;37.40;;
57339;SDS011;43174;50.930;18.170;2022-11-13T21:23:30;51.70;;;28.30;;
57339;SDS011;43174;50.930;18.170;2022-11-13T21:40:28;69.80;;;37.70;;
57339;SDS011;43174;50.930;18.170;2022-11-13T21:50:09;53.60;;;25.10;;
57339;SDS011;43174;50.930;18.170;2022-11-13T21:59:51;79.50;;;38.00;;
57339;SDS011;43174;50.930;18.170;2022-11-13T22:09:33;73.90;;;39.70;;
57339;SDS011;43174;50.930;18.170;2022-11-13T22:19:15;68.50;;;33.50;;
57339;SDS011;43174;50.930;18.170;2022-11-13T22:28:58;73.20;;;33.20;;
57339;SDS011;43174;50.930;18.170;2022-11-13T22:38:40;95.70;;;30.20;;
57339;SDS011;43174;50.930;18.170;2022-11-13T22:48:22;70.20;;;33.00;;
57339;SDS011;43174;50.930;18.170;2022-11-13T22:58:05;101.20;;;38.20;;
57339;SDS011;43174;50.930;18.170;2022-11-13T23:07:46;61.80;;;26.50;;
57339;SDS011;43174;50.930;18.170;2022-11-13T23:17:29;60.60;;;37.20;;
57339;SDS011;43174;50.930;18.170;2022-11-13T23:27:11;72.40;;;35.40;;
57339;SDS011;43174;50.930;18.170;2022-11-13T23:36:54;64.60;;;26.80;;
57339;SDS011;43174;50.930;18.170;2022-11-13T23:46:35;54.20;;;31.80;;
57339;SDS011;43174;50.930;18.170;2022-11-13T23:56:16;81.70;;;34.00;;
